Wardell, Missouri
Current Conditions -  °F | °C
As of 6:53 AM on Saturday 25 Oct 2014 (Local Time) from KHKA Reporting Station
Clear Clear  
Wind Chill: 57°   Ceiling: Unl
Heat Index: 57°   Visibility: 10mi
Dew Point: 54°   Wind: 7mph
Humidity: 89%   Direction: 210°SSW
Pressure: 30.07"   Gusts: NA
Location:  36.35°N, 89.82°W
Report Text: KHKA 251153Z AUTO 21006KT 10SM CLR 14/12 A3007 RMK AO2 SLP182 T01390122 10139 20133 53004
Loading
Personal Weather Stations






























Interactive Weather Map
Tropical Storm Tracking
New forecast layout! Learn more

10-Day Weather Forecast

Advertisements
Track Severe Weather on mobile